createdAt,value
2022-10-11T00:00:33.853Z,79.53
2022-10-11T00:01:33.830Z,79.53
2022-10-11T00:02:33.953Z,80.24
2022-10-11T00:03:33.692Z,80.15
2022-10-11T00:04:33.703Z,80.04
2022-10-11T00:05:33.763Z,80.18
2022-10-11T00:06:33.503Z,80.08
2022-10-11T00:07:33.771Z,79.98
2022-10-11T00:08:33.523Z,80.69
2022-10-11T00:09:33.817Z,81.60
2022-10-11T00:10:33.577Z,81.51
2022-10-11T00:11:33.652Z,80.85
2022-10-11T00:12:33.503Z,80.55
2022-10-11T00:13:33.843Z,79.74
2022-10-11T00:14:33.663Z,79.84
2022-10-11T00:15:33.647Z,80.35
2022-10-11T00:16:33.592Z,80.24
2022-10-11T00:17:33.623Z,80.35
2022-10-11T00:18:33.524Z,80.24
2022-10-11T00:19:33.562Z,79.94
2022-10-11T00:20:33.584Z,80.45
2022-10-11T00:21:33.332Z,80.35
2022-10-11T00:22:33.513Z,79.84
2022-10-11T00:23:33.498Z,80.79
2022-10-11T00:24:33.582Z,80.49
2022-10-11T00:25:33.512Z,80.08
2022-10-11T00:26:33.622Z,80.38
2022-10-11T00:27:33.384Z,80.90
2022-10-11T00:28:33.606Z,80.59
2022-10-11T00:29:33.363Z,80.49
2022-10-11T00:30:32.653Z,81.71
2022-10-11T00:31:35.802Z,81.85
2022-10-11T00:32:33.454Z,82.35
2022-10-11T00:33:33.552Z,82.15
2022-10-11T00:34:33.402Z,81.44
2022-10-11T00:35:33.402Z,81.13
2022-10-11T00:36:33.242Z,80.52
2022-10-11T00:37:33.343Z,80.42
2022-10-11T00:38:33.303Z,81.24
2022-10-11T00:39:33.454Z,81.74
2022-10-11T00:40:33.183Z,81.13
2022-10-11T00:41:33.434Z,81.24
2022-10-11T00:42:33.177Z,81.48
2022-10-11T00:43:33.315Z,81.79
2022-10-11T00:44:33.203Z,81.99
2022-10-11T00:45:33.303Z,81.99
2022-10-11T00:46:33.252Z,82.09
2022-10-11T00:47:33.314Z,82.19
2022-10-11T00:48:33.178Z,83.56
2022-10-11T00:49:33.292Z,83.15
2022-10-11T00:50:33.198Z,83.45
2022-10-11T00:51:33.062Z,84.06
2022-10-11T00:52:33.242Z,84.37
2022-10-11T00:53:33.104Z,84.58
2022-10-11T00:54:33.181Z,84.67
2022-10-11T00:55:33.123Z,84.17
2022-10-11T00:56:33.172Z,84.06
2022-10-11T00:57:33.103Z,83.86
2022-10-11T00:58:33.222Z,83.42
2022-10-11T00:59:33.023Z,83.21
2022-10-11T01:00:33.364Z,83.21
2022-10-11T01:01:33.230Z,84.03
2022-10-11T01:02:33.322Z,83.92
2022-10-11T01:03:33.042Z,83.82
2022-10-11T01:04:33.185Z,83.82
2022-10-11T01:05:33.126Z,83.11
2022-10-11T01:06:32.922Z,83.21
2022-10-11T01:07:33.163Z,83.11
2022-10-11T01:08:32.906Z,82.90
2022-10-11T01:09:33.066Z,82.80
2022-10-11T01:10:32.904Z,83.27
2022-10-11T01:11:33.004Z,82.56
2022-10-11T01:12:32.973Z,82.87
2022-10-11T01:13:33.104Z,82.56
2022-10-11T01:14:32.952Z,82.66
2022-10-11T01:15:32.972Z,82.56
2022-10-11T01:16:32.886Z,82.35
2022-10-11T01:17:33.033Z,82.97
2022-10-11T01:18:32.933Z,82.66
2022-10-11T01:19:32.142Z,82.56
2022-10-11T01:20:32.923Z,82.56
2022-10-11T01:21:32.954Z,82.46
2022-10-11T01:22:32.903Z,82.15
2022-10-11T01:23:32.723Z,82.35
2022-10-11T01:24:32.943Z,82.76
2022-10-11T01:25:32.692Z,82.76
2022-10-11T01:26:32.873Z,83.17
2022-10-11T01:27:32.881Z,83.27
2022-10-11T01:28:32.918Z,83.37
2022-10-11T01:29:32.873Z,83.89
2022-10-11T01:30:33.104Z,84.80
2022-10-11T01:31:32.744Z,85.21
2022-10-11T01:32:32.885Z,85.82
2022-10-11T01:33:32.682Z,85.82
2022-10-11T01:34:32.844Z,86.74
2022-10-11T01:35:32.783Z,87.35
2022-10-11T01:36:32.952Z,87.75
2022-10-11T01:37:32.782Z,87.55
2022-10-11T01:38:32.646Z,87.81
2022-10-11T01:39:32.684Z,87.51
2022-10-11T01:40:32.602Z,87.30
2022-10-11T01:41:32.693Z,87.75
2022-10-11T01:42:32.552Z,87.45
2022-10-11T01:43:32.765Z,87.45
2022-10-11T01:44:32.543Z,87.96
2022-10-11T01:45:32.714Z,88.36
2022-10-11T01:46:32.645Z,88.73
2022-10-11T01:47:32.645Z,88.02
2022-10-11T01:48:32.595Z,88.57
2022-10-11T01:49:32.683Z,87.75
2022-10-11T01:50:32.633Z,88.77
2022-10-11T01:51:32.664Z,88.77
2022-10-11T01:52:32.653Z,89.07
2022-10-11T01:53:32.394Z,89.59
2022-10-11T01:54:56.490Z,89.28
2022-10-11T01:55:33.243Z,89.18
2022-10-11T01:56:32.544Z,89.18
2022-10-11T01:57:32.493Z,89.69
2022-10-11T01:58:31.782Z,90.03
2022-10-11T01:59:33.412Z,91.05
2022-10-11T02:00:32.543Z,90.85
2022-10-11T02:01:32.525Z,91.16
2022-10-11T02:02:32.493Z,90.03
2022-10-11T02:03:32.603Z,90.09
2022-10-11T02:04:32.532Z,90.30
2022-10-11T02:05:32.453Z,90.60
2022-10-11T02:06:32.473Z,90.40
2022-10-11T02:07:32.463Z,90.40
2022-10-11T02:08:32.233Z,90.20
2022-10-11T02:09:32.393Z,90.81
2022-10-11T02:10:32.423Z,90.81
2022-10-11T02:11:32.403Z,91.22
2022-10-11T02:12:32.282Z,89.89
2022-10-11T02:13:32.405Z,90.91
2022-10-11T02:14:32.246Z,90.91
2022-10-11T02:15:32.433Z,91.11
2022-10-11T02:16:32.293Z,91.01
2022-10-11T02:17:32.342Z,90.91
2022-10-11T02:18:32.234Z,91.11
2022-10-11T02:19:32.327Z,90.70
2022-10-11T02:20:32.342Z,90.70
2022-10-11T02:21:32.473Z,90.30
2022-10-11T02:22:32.184Z,90.25
2022-10-11T02:23:32.163Z,89.54
2022-10-11T02:24:32.243Z,89.85
2022-10-11T02:25:32.082Z,89.75
2022-10-11T02:26:32.303Z,89.85
2022-10-11T02:27:32.063Z,88.93
2022-10-11T02:28:32.321Z,89.24
2022-10-11T02:29:32.063Z,89.64
2022-10-11T02:30:32.203Z,89.24
2022-10-11T02:31:32.153Z,88.83
2022-10-11T02:32:32.378Z,88.63
2022-10-11T02:33:32.052Z,89.24
2022-10-11T02:34:32.362Z,88.87
2022-10-11T02:35:32.073Z,89.75
2022-10-11T02:36:32.364Z,89.75
2022-10-11T02:37:32.145Z,89.44
2022-10-11T02:38:32.324Z,88.63
2022-10-11T02:39:32.112Z,88.87
2022-10-11T02:40:31.923Z,89.89
2022-10-11T02:41:32.143Z,89.89
2022-10-11T02:42:31.963Z,89.79
2022-10-11T02:43:32.082Z,89.59
2022-10-11T02:44:31.882Z,89.59
2022-10-11T02:45:32.045Z,89.69
2022-10-11T02:46:31.942Z,89.85
2022-10-11T02:47:32.233Z,88.93
2022-10-11T02:48:32.102Z,88.77
2022-10-11T02:49:32.042Z,89.38
2022-10-11T02:50:31.933Z,89.07
2022-10-11T02:51:31.992Z,89.48
2022-10-11T02:52:31.902Z,89.64
2022-10-11T02:53:31.953Z,89.24
2022-10-11T02:54:31.942Z,89.28
2022-10-11T02:55:31.143Z,89.48
2022-10-11T02:56:31.912Z,89.69
2022-10-11T02:57:31.713Z,89.69
2022-10-11T02:58:31.949Z,89.79
2022-10-11T02:59:31.823Z,89.59
2022-10-11T03:00:31.892Z,89.59
2022-10-11T03:01:31.929Z,89.07
2022-10-11T03:02:31.972Z,89.79
2022-10-11T03:03:31.763Z,90.20
2022-10-11T03:04:31.884Z,89.94
2022-10-11T03:05:31.783Z,89.73
2022-10-11T03:06:31.833Z,89.83
2022-10-11T03:07:31.734Z,90.64
2022-10-11T03:08:31.853Z,90.55
2022-10-11T03:09:31.745Z,90.03
2022-10-11T03:10:31.583Z,89.83
2022-10-11T03:11:31.833Z,89.83
2022-10-11T03:12:31.603Z,89.94
2022-10-11T03:13:31.713Z,90.14
2022-10-11T03:14:31.643Z,90.03
2022-10-11T03:15:31.762Z,89.73
2022-10-11T03:16:31.823Z,90.18
2022-10-11T03:17:36.499Z,90.18
2022-10-11T03:18:31.595Z,90.18
2022-10-11T03:19:31.743Z,89.87
2022-10-11T03:20:31.593Z,89.97
2022-10-11T03:21:31.702Z,90.12
2022-10-11T03:22:31.813Z,89.92
2022-10-11T03:23:31.726Z,89.92
2022-10-11T03:24:31.624Z,90.73
2022-10-11T03:25:31.453Z,91.03
2022-10-11T03:26:31.594Z,90.77
2022-10-11T03:27:31.502Z,91.08
2022-10-11T03:28:31.617Z,92.00
2022-10-11T03:29:31.404Z,91.28
2022-10-11T03:30:31.943Z,91.18
2022-10-11T03:31:31.423Z,90.98
2022-10-11T03:32:31.653Z,91.79
2022-10-11T03:33:31.432Z,92.55
2022-10-11T03:34:31.582Z,91.94
2022-10-11T03:35:31.441Z,91.63
2022-10-11T03:36:31.932Z,91.94
2022-10-11T03:37:31.502Z,92.86
2022-10-11T03:38:31.593Z,92.35
2022-10-11T03:39:31.422Z,92.55
2022-10-11T03:40:31.522Z,93.06
2022-10-11T03:41:31.433Z,92.45
2022-10-11T03:42:31.304Z,92.55
2022-10-11T03:43:31.453Z,91.94
2022-10-11T03:44:31.332Z,91.22
2022-10-11T03:45:31.424Z,91.37
2022-10-11T03:46:31.247Z,91.83
2022-10-11T03:47:31.443Z,91.02
2022-10-11T03:48:31.272Z,90.20
2022-10-11T03:49:31.512Z,89.90
2022-10-11T03:50:31.364Z,89.39
2022-10-11T03:51:31.424Z,89.02
2022-10-11T03:52:31.333Z,89.02
2022-10-11T03:53:31.333Z,89.84
2022-10-11T03:54:31.232Z,90.49
2022-10-11T03:55:31.601Z,91.00
2022-10-11T03:56:31.274Z,91.20
2022-10-11T03:57:31.096Z,91.52
2022-10-11T03:58:31.243Z,91.20
2022-10-11T03:59:31.242Z,90.90
2022-10-11T04:00:31.473Z,93.50
2022-10-11T04:01:31.209Z,93.80
2022-10-11T04:02:33.733Z,93.19
2022-10-11T04:03:31.103Z,93.09
2022-10-11T04:04:31.343Z,93.65
2022-10-11T04:05:31.153Z,94.26
2022-10-11T04:06:31.383Z,94.56
2022-10-11T04:07:31.192Z,95.07
2022-10-11T04:08:31.216Z,94.46
2022-10-11T04:09:31.153Z,94.06
2022-10-11T04:10:31.143Z,93.65
2022-10-11T04:11:31.103Z,93.13
2022-10-11T04:12:31.083Z,93.03
2022-10-11T04:13:31.105Z,92.93
2022-10-11T04:14:30.953Z,92.72
2022-10-11T04:15:31.192Z,93.85
2022-10-11T04:16:31.093Z,93.44
2022-10-11T04:17:31.163Z,93.13
2022-10-11T04:18:31.024Z,92.93
2022-10-11T04:19:31.092Z,93.13
2022-10-11T04:20:30.974Z,93.33
2022-10-11T04:21:31.093Z,92.72
2022-10-11T04:22:31.503Z,93.13
2022-10-11T04:23:31.072Z,92.93
2022-10-11T04:24:31.152Z,92.42
2022-10-11T04:25:31.233Z,91.91
2022-10-11T04:26:31.353Z,91.60
2022-10-11T04:27:30.843Z,91.70
2022-10-11T04:28:31.063Z,91.91
2022-10-11T04:29:32.739Z,91.50
2022-10-11T04:30:31.302Z,91.29
2022-10-11T04:31:30.804Z,91.39
2022-10-11T04:32:31.062Z,93.13
2022-10-11T04:33:30.896Z,93.48
2022-10-11T04:34:30.943Z,93.59
2022-10-11T04:35:30.823Z,93.59
2022-10-11T04:36:31.123Z,93.48
2022-10-11T04:37:30.913Z,93.85
2022-10-11T04:38:30.911Z,93.59
2022-10-11T04:39:30.832Z,93.18
2022-10-11T04:40:30.854Z,93.13
2022-10-11T04:41:30.873Z,92.25
2022-10-11T04:42:30.872Z,92.25
2022-10-11T04:43:30.819Z,92.66
2022-10-11T04:44:30.973Z,92.83
2022-10-11T04:45:30.742Z,92.77
2022-10-11T04:46:30.673Z,93.28
2022-10-11T04:47:30.842Z,93.28
2022-10-11T04:48:30.642Z,92.46
2022-10-11T04:49:30.873Z,92.77
2022-10-11T04:50:30.692Z,92.77
2022-10-11T04:51:30.813Z,93.07
2022-10-11T04:52:30.662Z,93.07
2022-10-11T04:53:30.693Z,92.87
2022-10-11T04:54:30.602Z,93.28
2022-10-11T04:55:30.732Z,93.28
2022-10-11T04:56:30.622Z,93.28
2022-10-11T04:57:30.893Z,93.69
2022-10-11T04:58:30.683Z,93.38
2022-10-11T04:59:30.414Z,93.59
2022-10-11T05:00:30.652Z,93.38
2022-10-11T05:01:30.535Z,93.95
2022-10-11T05:02:30.783Z,92.77
2022-10-11T05:03:30.516Z,93.07
2022-10-11T05:04:30.694Z,93.89
2022-10-11T05:05:30.452Z,93.74
2022-10-11T05:06:30.595Z,93.24
2022-10-11T05:07:30.602Z,92.52
2022-10-11T05:08:30.706Z,93.28
2022-10-11T05:09:30.603Z,93.79
2022-10-11T05:10:30.613Z,94.10
2022-10-11T05:11:30.522Z,94.10
2022-10-11T05:12:30.512Z,94.04
2022-10-11T05:13:31.069Z,94.75
2022-10-11T05:14:30.462Z,94.14
2022-10-11T05:15:30.822Z,94.55
2022-10-11T05:16:30.403Z,94.34
2022-10-11T05:17:31.082Z,94.71
2022-10-11T05:18:30.924Z,94.60
2022-10-11T05:19:30.793Z,94.71
2022-10-11T05:20:30.313Z,95.12
2022-10-11T05:21:30.482Z,95.22
2022-10-11T05:22:30.933Z,95.22
2022-10-11T05:23:30.953Z,95.28
2022-10-11T05:24:30.323Z,94.87
2022-10-11T05:25:30.812Z,94.26
2022-10-11T05:26:46.121Z,93.95
2022-10-11T05:27:30.499Z,93.70
2022-10-11T05:28:30.969Z,93.60
2022-10-11T05:29:30.460Z,93.40
2022-10-11T05:30:30.400Z,93.50
2022-10-11T05:31:31.155Z,93.19
2022-10-11T05:32:30.367Z,93.29
2022-10-11T05:33:30.738Z,93.15
2022-10-11T05:34:30.734Z,92.94
2022-10-11T05:35:30.406Z,92.74
2022-10-11T05:36:30.324Z,92.94
2022-10-11T05:37:30.225Z,92.54
2022-10-11T05:38:31.095Z,92.94
2022-10-11T05:39:30.135Z,92.19
2022-10-11T05:40:30.325Z,92.29
2022-10-11T05:41:30.275Z,90.92
2022-10-11T05:42:30.295Z,90.04
2022-10-11T05:43:30.135Z,90.00
2022-10-11T05:44:30.265Z,89.73
2022-10-11T05:45:30.305Z,90.10
2022-10-11T05:46:29.984Z,90.20
2022-10-11T05:47:30.213Z,90.00
2022-10-11T05:48:29.983Z,88.78
2022-10-11T05:49:30.214Z,90.10
2022-10-11T05:50:30.066Z,91.06
2022-10-11T05:51:30.155Z,91.06
2022-10-11T05:52:29.976Z,90.59
2022-10-11T05:53:30.174Z,90.49
2022-10-11T05:54:30.031Z,90.70
2022-10-11T05:55:30.345Z,91.31
2022-10-11T05:56:30.055Z,91.00
2022-10-11T05:57:30.114Z,90.70
2022-10-11T05:58:30.086Z,90.70
2022-10-11T05:59:30.235Z,91.56
2022-10-11T06:00:30.064Z,92.47
2022-10-11T06:01:30.360Z,91.96
2022-10-11T06:02:30.005Z,91.31
2022-10-11T06:03:29.928Z,90.80
2022-10-11T06:04:29.995Z,90.39
2022-10-11T06:05:29.835Z,90.39
2022-10-11T06:06:30.048Z,90.08
2022-10-11T06:07:29.874Z,90.29
2022-10-11T06:08:30.025Z,89.98
2022-10-11T06:09:29.915Z,90.29
2022-10-11T06:10:29.981Z,91.11
2022-10-11T06:11:30.005Z,92.07
2022-10-11T06:12:29.914Z,92.78
2022-10-11T06:13:29.924Z,93.44
2022-10-11T06:14:29.995Z,93.70
2022-10-11T06:15:29.857Z,93.60
2022-10-11T06:16:29.767Z,93.40
2022-10-11T06:17:29.894Z,92.99
2022-10-11T06:18:29.726Z,92.23
2022-10-11T06:19:29.944Z,92.23
2022-10-11T06:20:29.714Z,92.13
2022-10-11T06:21:29.835Z,92.13
2022-10-11T06:22:30.164Z,92.02
2022-10-11T06:23:29.985Z,91.57
2022-10-11T06:24:29.735Z,91.16
2022-10-11T06:25:29.895Z,90.86
2022-10-11T06:26:29.725Z,90.75
2022-10-11T06:27:29.884Z,90.61
2022-10-11T06:28:29.974Z,90.51
2022-10-11T06:29:29.855Z,90.61
2022-10-11T06:30:30.025Z,90.61
2022-10-11T06:31:30.135Z,90.41
2022-10-11T06:32:30.474Z,90.51
2022-10-11T06:33:29.615Z,90.41
2022-10-11T06:34:29.735Z,90.26
2022-10-11T06:35:29.855Z,90.16
2022-10-11T06:36:30.285Z,90.06
2022-10-11T06:37:29.555Z,90.26
2022-10-11T06:38:30.085Z,90.26
2022-10-11T06:39:30.106Z,90.16
2022-10-11T06:40:30.034Z,89.81
2022-10-11T06:41:29.598Z,90.01
2022-10-11T06:42:29.726Z,89.71
2022-10-11T06:43:30.985Z,89.51
2022-10-11T06:44:29.634Z,89.67
2022-10-11T06:45:28.835Z,89.67
2022-10-11T06:46:29.975Z,89.67
2022-10-11T06:47:29.535Z,89.42
2022-10-11T06:48:29.455Z,88.81
2022-10-11T06:49:29.515Z,88.67
2022-10-11T06:50:54.383Z,88.57
2022-10-11T06:51:30.115Z,88.12
2022-10-11T06:52:29.457Z,87.92
2022-10-11T06:53:29.695Z,87.92
2022-10-11T06:54:29.396Z,87.92
2022-10-11T06:55:29.575Z,87.37
2022-10-11T06:56:29.373Z,87.57
2022-10-11T06:57:29.475Z,87.57
2022-10-11T06:58:29.495Z,87.57
2022-10-11T06:59:29.494Z,87.23
2022-10-11T07:00:29.464Z,87.37
2022-10-11T07:01:29.503Z,87.57
2022-10-11T07:02:29.363Z,87.37
2022-10-11T07:03:29.225Z,88.22
2022-10-11T07:04:29.565Z,88.93
2022-10-11T07:05:29.235Z,89.34
2022-10-11T07:06:29.404Z,88.73
2022-10-11T07:07:29.235Z,88.22
2022-10-11T07:08:29.444Z,88.59
2022-10-11T07:09:29.777Z,87.63
2022-10-11T07:10:30.134Z,87.43
2022-10-11T07:11:29.322Z,86.47
2022-10-11T07:12:30.595Z,86.27
2022-10-11T07:13:29.164Z,85.76
2022-10-11T07:14:29.424Z,86.07
2022-10-11T07:15:29.274Z,85.92
2022-10-11T07:16:29.315Z,85.62
2022-10-11T07:17:29.255Z,85.92
2022-10-11T07:18:29.216Z,85.38
2022-10-11T07:19:29.405Z,84.42
2022-10-11T07:20:29.215Z,82.82
2022-10-11T07:21:29.247Z,82.14
2022-10-11T07:22:29.104Z,80.50
2022-10-11T07:23:29.365Z,75.78
2022-10-11T07:24:29.065Z,75.51
2022-10-11T07:25:29.234Z,73.42
2022-10-11T07:26:32.532Z,72.38
2022-10-11T07:27:29.293Z,71.20
2022-10-11T07:28:29.161Z,69.15
2022-10-11T07:29:29.176Z,68.88
2022-10-11T07:30:29.165Z,67.24
2022-10-11T07:31:29.165Z,67.27
2022-10-11T07:32:29.094Z,66.47
2022-10-11T07:33:29.694Z,62.80
2022-10-11T07:34:29.053Z,61.64
2022-10-11T07:35:28.345Z,62.11
2022-10-11T07:36:29.125Z,62.08
2022-10-11T07:37:28.936Z,61.68
2022-10-11T07:38:29.176Z,60.05
2022-10-11T07:39:28.974Z,62.45
2022-10-11T07:40:29.187Z,59.30
2022-10-11T07:41:28.918Z,57.97
2022-10-11T07:42:29.035Z,57.61
2022-10-11T07:43:28.905Z,58.36
2022-10-11T07:44:28.966Z,53.94
2022-10-11T07:45:29.011Z,56.70
2022-10-11T07:46:29.118Z,56.70
2022-10-11T07:47:28.916Z,55.48
2022-10-11T07:48:29.056Z,54.26
2022-10-11T07:49:29.025Z,53.31
2022-10-11T07:50:28.955Z,52.84
2022-10-11T07:51:29.156Z,56.08
2022-10-11T07:52:28.705Z,55.26
2022-10-11T07:53:28.875Z,53.66
2022-10-11T07:54:28.795Z,54.61
2022-10-11T07:55:29.105Z,54.21
2022-10-11T07:56:28.753Z,56.84
2022-10-11T07:57:28.893Z,58.82
2022-10-11T07:58:28.745Z,59.22
2022-10-11T07:59:28.864Z,59.39
2022-10-11T08:00:28.734Z,58.38
2022-10-11T08:01:29.138Z,56.21
2022-10-11T08:02:29.087Z,56.36
2022-10-11T08:03:28.868Z,59.56
2022-10-11T08:04:28.824Z,59.91
2022-10-11T08:05:28.585Z,56.26
2022-10-11T08:06:28.816Z,57.71
2022-10-11T08:07:28.614Z,58.34
2022-10-11T08:08:28.789Z,58.67
2022-10-11T08:09:28.677Z,58.38
2022-10-11T08:10:28.755Z,57.68
2022-10-11T08:11:28.676Z,58.65
2022-10-11T08:12:28.784Z,56.27
2022-10-11T08:13:28.792Z,54.88
2022-10-11T08:14:28.675Z,55.55
2022-10-11T08:15:28.558Z,54.24
2022-10-11T08:16:28.774Z,53.31
2022-10-11T08:17:28.634Z,52.72
2022-10-11T08:18:28.605Z,52.39
2022-10-11T08:19:28.534Z,50.65
2022-10-11T08:20:28.525Z,50.53
2022-10-11T08:21:28.554Z,50.03
2022-10-11T08:22:28.503Z,50.90
2022-10-11T08:23:28.575Z,50.33
2022-10-11T08:24:28.384Z,50.11
2022-10-11T08:25:28.614Z,52.42
2022-10-11T08:26:28.403Z,51.54
2022-10-11T08:27:28.604Z,51.00
2022-10-11T08:28:28.508Z,50.35
2022-10-11T08:29:28.699Z,52.00
2022-10-11T08:30:28.419Z,53.24
2022-10-11T08:31:28.706Z,56.32
2022-10-11T08:32:28.435Z,51.32
2022-10-11T08:33:28.634Z,50.05
2022-10-11T08:34:28.525Z,50.09
2022-10-11T08:35:28.466Z,47.56
2022-10-11T08:36:28.524Z,49.09
2022-10-11T08:37:28.264Z,51.40
2022-10-11T08:38:28.544Z,50.11
2022-10-11T08:39:28.710Z,49.93
2022-10-11T08:40:31.600Z,49.76
2022-10-11T08:41:28.322Z,47.71
2022-10-11T08:42:28.513Z,45.59
2022-10-11T08:43:28.345Z,44.48
2022-10-11T08:44:34.158Z,42.58
2022-10-11T08:45:28.405Z,42.19
2022-10-11T08:46:28.364Z,42.97
2022-10-11T08:47:28.285Z,43.62
2022-10-11T08:48:28.354Z,42.89
2022-10-11T08:49:28.395Z,41.41
2022-10-11T08:50:28.708Z,43.29
2022-10-11T08:51:28.245Z,39.28
2022-10-11T08:52:28.115Z,39.64
2022-10-11T08:53:28.305Z,39.34
2022-10-11T08:54:28.214Z,39.62
2022-10-11T08:55:28.534Z,38.15
2022-10-11T08:56:28.374Z,38.32
2022-10-11T08:57:28.814Z,37.85
2022-10-11T08:58:28.054Z,38.66
2022-10-11T08:59:28.243Z,40.33
2022-10-11T09:00:28.253Z,39.78
2022-10-11T09:01:28.213Z,41.20
2022-10-11T09:02:43.621Z,40.64
2022-10-11T09:03:28.274Z,37.77
2022-10-11T09:04:28.094Z,38.40
2022-10-11T09:05:28.205Z,39.18
2022-10-11T09:06:28.073Z,39.54
2022-10-11T09:07:28.064Z,37.26
2022-10-11T09:08:28.185Z,39.40
2022-10-11T09:09:28.135Z,37.92
2022-10-11T09:10:28.226Z,36.95
2022-10-11T09:11:27.894Z,37.92
2022-10-11T09:12:31.959Z,37.99
2022-10-11T09:13:28.025Z,36.80
2022-10-11T09:14:28.134Z,37.60
2022-10-11T09:15:28.067Z,37.21
2022-10-11T09:16:28.166Z,37.23
2022-10-11T09:17:27.975Z,40.08
2022-10-11T09:18:28.690Z,42.66
2022-10-11T09:19:28.055Z,40.56
2022-10-11T09:20:28.056Z,38.74
2022-10-11T09:21:28.013Z,37.26
2022-10-11T09:22:30.552Z,37.24
2022-10-11T09:23:27.985Z,38.11
2022-10-11T09:24:27.910Z,37.48
2022-10-11T09:25:27.953Z,36.01
2022-10-11T09:26:27.904Z,36.70
2022-10-11T09:27:50.293Z,35.41
2022-10-11T09:28:28.018Z,35.52
2022-10-11T09:29:27.905Z,36.34
2022-10-11T09:30:28.127Z,37.40
2022-10-11T09:31:27.934Z,37.87
2022-10-11T09:32:27.836Z,37.32
2022-10-11T09:33:27.887Z,35.24
2022-10-11T09:34:27.865Z,36.85
2022-10-11T09:35:27.804Z,35.46
2022-10-11T09:36:27.755Z,35.06
2022-10-11T09:37:27.820Z,36.65
2022-10-11T09:38:27.937Z,36.07
2022-10-11T09:39:27.614Z,36.07
2022-10-11T09:40:27.785Z,37.73
2022-10-11T09:41:27.758Z,39.79
2022-10-11T09:42:27.804Z,40.84
2022-10-11T09:43:28.825Z,42.60
2022-10-11T09:44:27.964Z,44.60
2022-10-11T09:45:27.655Z,41.46
2022-10-11T09:46:27.766Z,40.21
2022-10-11T09:47:27.644Z,38.14
2022-10-11T09:48:27.865Z,36.51
2022-10-11T09:49:27.595Z,35.90
2022-10-11T09:50:27.704Z,36.20
2022-10-11T09:51:27.646Z,37.08
2022-10-11T09:52:26.855Z,36.57
2022-10-11T09:53:27.735Z,35.38
2022-10-11T09:54:27.494Z,35.18
2022-10-11T09:55:27.641Z,34.97
2022-10-11T09:56:27.474Z,34.18
2022-10-11T09:57:27.696Z,35.36
2022-10-11T09:58:27.495Z,34.56
2022-10-11T09:59:27.707Z,35.61
2022-10-11T10:00:27.624Z,36.15
2022-10-11T10:01:27.830Z,38.89
2022-10-11T10:02:27.614Z,38.08
2022-10-11T10:03:27.694Z,38.12
2022-10-11T10:04:27.444Z,35.78
2022-10-11T10:05:27.685Z,37.07
2022-10-11T10:06:27.435Z,34.87
2022-10-11T10:07:27.594Z,33.46
2022-10-11T10:08:27.435Z,35.06
2022-10-11T10:09:27.388Z,35.55
2022-10-11T10:10:27.516Z,34.95
2022-10-11T10:11:27.296Z,34.49
2022-10-11T10:12:27.506Z,33.97
2022-10-11T10:13:27.333Z,34.08
2022-10-11T10:14:27.465Z,34.15
2022-10-11T10:15:27.285Z,32.87
2022-10-11T10:16:27.916Z,32.40
2022-10-11T10:17:27.335Z,33.38
2022-10-11T10:18:27.784Z,33.58
2022-10-11T10:19:27.276Z,32.81
2022-10-11T10:20:27.466Z,33.41
2022-10-11T10:21:27.674Z,33.82
2022-10-11T10:22:27.414Z,35.15
2022-10-11T10:23:27.405Z,33.64
2022-10-11T10:24:27.174Z,34.31
2022-10-11T10:25:27.325Z,34.18
2022-10-11T10:26:27.487Z,33.28
2022-10-11T10:27:27.394Z,34.80
2022-10-11T10:28:27.200Z,34.18
2022-10-11T10:29:27.295Z,33.46
2022-10-11T10:30:28.339Z,33.02
2022-10-11T10:31:27.244Z,34.82
2022-10-11T10:32:28.137Z,34.56
2022-10-11T10:33:27.475Z,37.11
2022-10-11T10:34:27.714Z,36.78
2022-10-11T10:35:27.522Z,35.53
2022-10-11T10:36:27.155Z,34.03
2022-10-11T10:37:27.214Z,33.43
2022-10-11T10:38:27.514Z,34.39
2022-10-11T10:39:27.206Z,34.71
2022-10-11T10:40:27.504Z,35.66
2022-10-11T10:41:27.064Z,34.66
2022-10-11T10:42:27.185Z,34.27
2022-10-11T10:43:27.007Z,34.56
2022-10-11T10:44:27.175Z,34.18
2022-10-11T10:45:26.964Z,35.88
2022-10-11T10:46:27.134Z,34.55
2022-10-11T10:47:27.005Z,36.88
2022-10-11T10:48:27.147Z,38.53
2022-10-11T10:49:53.773Z,38.88
2022-10-11T10:50:27.105Z,40.11
2022-10-11T10:51:27.366Z,40.33
2022-10-11T10:52:27.215Z,42.53
2022-10-11T10:53:26.991Z,43.54
2022-10-11T10:54:27.044Z,44.06
2022-10-11T10:55:27.056Z,44.08
2022-10-11T10:56:27.124Z,44.08
2022-10-11T10:57:27.293Z,43.73
2022-10-11T10:58:26.804Z,45.36
2022-10-11T10:59:27.353Z,46.28
2022-10-11T11:00:26.858Z,47.08
2022-10-11T11:01:27.037Z,46.36
2022-10-11T11:02:40.196Z,46.14
2022-10-11T11:03:27.035Z,45.14
2022-10-11T11:04:26.847Z,44.17
2022-10-11T11:05:27.023Z,44.46
2022-10-11T11:06:27.454Z,45.06
2022-10-11T11:07:26.934Z,45.18
2022-10-11T11:08:26.815Z,44.49
2022-10-11T11:09:26.064Z,45.68
2022-10-11T11:10:26.884Z,45.89
2022-10-11T11:11:26.805Z,45.86
2022-10-11T11:12:26.824Z,43.85
2022-10-11T11:13:26.724Z,45.74
2022-10-11T11:14:26.844Z,45.34
2022-10-11T11:15:32.324Z,44.35
2022-10-11T11:16:26.824Z,42.55
2022-10-11T11:17:26.755Z,43.75
2022-10-11T11:18:26.877Z,42.25
2022-10-11T11:19:26.655Z,43.25
2022-10-11T11:20:26.795Z,43.52
2022-10-11T11:21:26.706Z,42.73
2022-10-11T11:22:31.821Z,43.82
2022-10-11T11:23:26.704Z,42.71
2022-10-11T11:24:26.695Z,44.31
2022-10-11T11:25:27.046Z,43.01
2022-10-11T11:26:26.876Z,43.71
2022-10-11T11:27:26.725Z,43.23
2022-10-11T11:28:26.563Z,42.73
2022-10-11T11:29:51.916Z,43.23
2022-10-11T11:30:26.556Z,43.93
2022-10-11T11:31:26.785Z,42.51
2022-10-11T11:32:26.445Z,43.43
2022-10-11T11:33:26.710Z,43.82
2022-10-11T11:34:26.467Z,43.55
2022-10-11T11:35:26.714Z,43.45
2022-10-11T11:36:26.506Z,43.43
2022-10-11T11:37:26.648Z,43.73
2022-10-11T11:38:29.676Z,43.75
2022-10-11T11:39:26.635Z,44.45
2022-10-11T11:40:26.684Z,44.35
2022-10-11T11:41:26.555Z,43.15
2022-10-11T11:42:26.477Z,43.05
2022-10-11T11:43:26.414Z,42.57
2022-10-11T11:44:27.644Z,43.45
2022-10-11T11:45:26.445Z,44.45
2022-10-11T11:46:26.894Z,43.85
2022-10-11T11:47:26.395Z,43.47
2022-10-11T11:48:26.837Z,45.86
2022-10-11T11:49:26.535Z,44.67
2022-10-11T11:50:26.769Z,43.37
2022-10-11T11:51:30.533Z,44.45
2022-10-11T11:52:26.424Z,44.67
2022-10-11T11:53:26.355Z,44.37
2022-10-11T11:54:26.506Z,45.86
2022-10-11T11:55:26.295Z,44.84
2022-10-11T11:56:26.380Z,43.85
2022-10-11T11:57:26.475Z,43.67
2022-10-11T11:58:26.155Z,43.77
2022-10-11T11:59:26.446Z,44.67
2022-10-11T12:00:26.275Z,44.96
2022-10-11T12:01:30.975Z,44.76
2022-10-11T12:02:26.236Z,44.38
2022-10-11T12:03:26.345Z,45.29
2022-10-11T12:04:26.156Z,44.61
2022-10-11T12:05:26.475Z,45.31
2022-10-11T12:06:26.201Z,47.71
2022-10-11T12:07:26.346Z,46.20
2022-10-11T12:08:26.235Z,45.63
2022-10-11T12:09:26.264Z,47.15
2022-10-11T12:10:26.185Z,47.45
2022-10-11T12:11:26.487Z,48.55
2022-10-11T12:12:26.134Z,48.05
2022-10-11T12:13:29.821Z,47.37
2022-10-11T12:14:26.356Z,46.87
2022-10-11T12:15:26.174Z,47.67
2022-10-11T12:16:26.274Z,48.47
2022-10-11T12:17:26.037Z,48.07
2022-10-11T12:18:26.125Z,48.05
2022-10-11T12:19:25.973Z,47.47
2022-10-11T12:20:26.138Z,48.45
2022-10-11T12:21:26.065Z,48.25
2022-10-11T12:22:26.316Z,46.75
2022-10-11T12:23:26.134Z,47.55
2022-10-11T12:24:26.055Z,47.95
2022-10-11T12:25:25.975Z,47.15
2022-10-11T12:26:26.054Z,47.05
2022-10-11T12:27:26.107Z,47.13
2022-10-11T12:28:26.141Z,47.13
2022-10-11T12:29:28.760Z,46.85
2022-10-11T12:30:25.884Z,47.42
2022-10-11T12:31:26.075Z,46.75
2022-10-11T12:32:25.814Z,46.83
2022-10-11T12:33:26.084Z,45.33
2022-10-11T12:34:25.804Z,45.03
2022-10-11T12:35:25.975Z,45.23
2022-10-11T12:36:25.907Z,46.13
2022-10-11T12:37:26.005Z,46.35
2022-10-11T12:38:25.904Z,45.73
2022-10-11T12:39:26.015Z,45.93
2022-10-11T12:40:26.006Z,45.73
2022-10-11T12:41:26.335Z,46.43
2022-10-11T12:42:25.855Z,44.21
2022-10-11T12:43:26.514Z,45.23
2022-10-11T12:44:26.044Z,44.65
2022-10-11T12:45:25.664Z,45.05
2022-10-11T12:46:25.886Z,45.43
2022-10-11T12:47:25.825Z,46.20
2022-10-11T12:48:30.220Z,45.53
2022-10-11T12:49:25.706Z,44.71
2022-10-11T12:50:25.866Z,45.53
2022-10-11T12:51:25.706Z,45.93
2022-10-11T12:52:25.995Z,45.51